createdAt,value
2018-11-05T00:02:14.393Z,100763.02
2018-11-05T00:04:43.222Z,100764.11
2018-11-05T00:07:11.946Z,100749.14
2018-11-05T00:09:40.885Z,100748.47
2018-11-05T00:12:09.629Z,100756.41
2018-11-05T00:14:38.329Z,100754.44
2018-11-05T00:17:07.045Z,100748.08
2018-11-05T00:19:35.743Z,100745.75
2018-11-05T00:22:04.641Z,100746.73
2018-11-05T00:24:33.463Z,100746.06
2018-11-05T00:27:02.163Z,100745.36
2018-11-05T00:29:31.113Z,100747.67
2018-11-05T00:31:59.831Z,100753.41
2018-11-05T00:34:28.682Z,100754.84
2018-11-05T00:36:57.424Z,100761.88
2018-11-05T00:39:26.142Z,100746.47
2018-11-05T00:41:54.854Z,100747.11
2018-11-05T00:44:23.563Z,100746.34
2018-11-05T00:46:52.284Z,100750.64
2018-11-05T00:49:20.993Z,100737.25
2018-11-05T00:51:49.713Z,100733.28
2018-11-05T00:54:18.412Z,100740.61
2018-11-05T00:56:47.118Z,100751.77
2018-11-05T00:59:16.021Z,100751.40
2018-11-05T01:01:44.758Z,100740.61
2018-11-05T01:07:10.344Z,100732.06
2018-11-05T01:09:39.065Z,100732.59
2018-11-05T01:12:07.791Z,100734.88
2018-11-05T01:14:36.523Z,100725.13
2018-11-05T01:17:05.816Z,100726.50
2018-11-05T01:19:34.541Z,100724.44
2018-11-05T01:22:03.312Z,100724.98
2018-11-05T01:24:32.037Z,100719.02
2018-11-05T01:27:01.010Z,100715.67
2018-11-05T01:29:29.708Z,100711.91
2018-11-05T01:31:58.447Z,100714.23
2018-11-05T01:34:27.160Z,100714.81
2018-11-05T01:36:55.912Z,100711.00
2018-11-05T01:39:25.024Z,100714.13
2018-11-05T01:41:53.751Z,100710.78
2018-11-05T01:44:22.592Z,100717.80
2018-11-05T01:46:51.317Z,100710.23
2018-11-05T01:49:20.040Z,100705.20
2018-11-05T01:51:48.749Z,100694.91
2018-11-05T01:54:17.452Z,100694.15
2018-11-05T01:56:46.160Z,100694.28
2018-11-05T01:59:14.873Z,100680.72
2018-11-05T02:01:43.599Z,100686.76
2018-11-05T02:04:12.304Z,100691.18
2018-11-05T02:06:41.175Z,100683.40
2018-11-05T02:09:10.472Z,100679.11
2018-11-05T02:11:39.340Z,100672.70
2018-11-05T02:14:08.168Z,100669.80
2018-11-05T02:16:37.015Z,100662.10
2018-11-05T02:19:06.155Z,100672.92
2018-11-05T02:21:35.036Z,100671.31
2018-11-05T02:24:03.828Z,100671.03
2018-11-05T02:26:32.502Z,100674.20
2018-11-05T02:29:01.205Z,100662.62
2018-11-05T02:31:30.052Z,100656.98
2018-11-05T02:33:59.245Z,100659.12
2018-11-05T02:36:28.340Z,100657.83
2018-11-05T02:38:57.444Z,100655.69
2018-11-05T02:41:26.167Z,100659.66
2018-11-05T02:43:54.857Z,100657.44
2018-11-05T02:46:23.576Z,100660.48
2018-11-05T02:48:52.279Z,100669.63
2018-11-05T02:51:21.187Z,100671.33
2018-11-05T02:53:49.905Z,100664.36
2018-11-05T02:56:18.615Z,100666.19
2018-11-05T02:58:47.326Z,100664.45
2018-11-05T03:01:16.041Z,100664.98
2018-11-05T03:03:44.754Z,100658.18
2018-11-05T03:06:13.630Z,100663.84
2018-11-05T03:08:42.476Z,100665.67
2018-11-05T03:11:11.304Z,100659.24
2018-11-05T03:13:40.040Z,100661.92
2018-11-05T03:16:08.983Z,100656.73
2018-11-05T03:18:37.708Z,100657.18
2018-11-05T03:21:06.640Z,100656.81
2018-11-05T03:23:35.370Z,100658.48
2018-11-05T03:26:04.580Z,100640.73
2018-11-05T03:28:33.283Z,100644.53
2018-11-05T03:31:02.174Z,100642.26
2018-11-05T03:33:30.885Z,100638.73
2018-11-05T03:35:59.611Z,100641.64
2018-11-05T03:38:28.301Z,100635.61
2018-11-05T03:40:57.003Z,100642.94
2018-11-05T03:43:25.925Z,100645.08
2018-11-05T03:45:54.636Z,100642.86
2018-11-05T03:48:23.336Z,100639.90
2018-11-05T03:50:52.392Z,100643.79
2018-11-05T03:53:21.116Z,100642.48
2018-11-05T03:55:49.925Z,100633.41
2018-11-05T03:58:18.579Z,100630.51
2018-11-05T04:00:47.328Z,100628.84
2018-11-05T04:03:16.067Z,100625.48
2018-11-05T04:05:44.826Z,100625.54
2018-11-05T04:08:13.525Z,100621.28
2018-11-05T04:10:42.500Z,100615.42
2018-11-05T04:13:11.273Z,100618.06
2018-11-05T04:15:40.063Z,100624.17
2018-11-05T04:18:08.697Z,100622.03
2018-11-05T04:20:37.407Z,100620.29
2018-11-05T04:23:06.126Z,100621.14
2018-11-05T04:25:35.101Z,100619.36
2018-11-05T04:28:04.931Z,100615.87
2018-11-05T04:30:33.827Z,100605.81
2018-11-05T04:33:02.532Z,100611.28
2018-11-05T04:35:31.253Z,100601.67
2018-11-05T04:38:00.036Z,100608.55
2018-11-05T04:40:28.744Z,100603.15
2018-11-05T04:42:57.456Z,100599.01
2018-11-05T04:45:26.176Z,100600.08
2018-11-05T04:47:54.898Z,100595.58
2018-11-05T04:50:23.640Z,100594.50
2018-11-05T04:52:52.592Z,100596.56
2018-11-05T04:55:21.313Z,100588.64
2018-11-05T04:57:56.318Z,100581.54
2018-11-05T05:00:25.072Z,100583.14
2018-11-05T05:02:53.775Z,100583.06
2018-11-05T05:05:22.482Z,100584.27
2018-11-05T05:07:51.756Z,100580.23
2018-11-05T05:10:20.499Z,100577.16
2018-11-05T05:12:49.208Z,100573.21
2018-11-05T05:15:17.933Z,100576.56
2018-11-05T05:17:46.804Z,100578.63
2018-11-05T05:20:16.619Z,100577.69
2018-11-05T05:22:45.723Z,100586.23
2018-11-05T05:25:14.486Z,100579.38
2018-11-05T05:27:43.188Z,100581.12
2018-11-05T05:30:15.130Z,100580.28
2018-11-05T05:32:44.426Z,100584.17
2018-11-05T05:35:13.145Z,100580.28
2018-11-05T05:37:42.435Z,100570.45
2018-11-05T05:40:11.169Z,100577.47
2018-11-05T05:42:40.604Z,100579.20
2018-11-05T05:45:10.589Z,100586.23
2018-11-05T05:47:39.396Z,100589.36
2018-11-05T05:50:10.837Z,100589.98
2018-11-05T05:52:39.760Z,100595.31
2018-11-05T05:55:08.848Z,100604.09
2018-11-05T05:57:37.561Z,100599.92
2018-11-05T06:00:08.773Z,100598.22
2018-11-05T06:02:37.757Z,100594.78
2018-11-05T06:05:07.276Z,100591.83
2018-11-05T06:07:36.408Z,100594.11
2018-11-05T06:10:05.264Z,100594.11
2018-11-05T06:12:33.968Z,100599.30
2018-11-05T06:15:02.707Z,100598.40
2018-11-05T06:17:31.748Z,100601.27
2018-11-05T06:20:00.411Z,100603.05
2018-11-05T06:22:29.119Z,100602.11
2018-11-05T06:24:58.384Z,100613.25
2018-11-05T06:27:27.108Z,100607.16
2018-11-05T06:29:55.824Z,100606.63
2018-11-05T06:32:24.540Z,100603.02
2018-11-05T06:34:53.271Z,100602.02
2018-11-05T06:37:22.259Z,100606.67
2018-11-05T06:39:50.973Z,100602.24
2018-11-05T06:42:19.792Z,100601.34
2018-11-05T06:44:48.557Z,100606.36
2018-11-05T06:47:17.217Z,100614.00
2018-11-05T06:49:58.236Z,100611.31
2018-11-05T06:52:26.997Z,100613.83
2018-11-05T06:54:55.933Z,100614.50
2018-11-05T06:57:24.651Z,100610.16
2018-11-05T06:59:53.393Z,100610.83
2018-11-05T07:02:22.359Z,100611.98
2018-11-05T07:04:51.304Z,100598.77
2018-11-05T07:07:20.300Z,100605.08
2018-11-05T07:09:49.345Z,100598.39
2018-11-05T07:12:17.989Z,100591.17
2018-11-05T07:14:46.792Z,100587.80
2018-11-05T07:17:15.504Z,100593.05
2018-11-05T07:19:44.321Z,100592.78
2018-11-05T07:22:13.395Z,100588.55
2018-11-05T07:24:42.268Z,100591.57
2018-11-05T07:27:10.999Z,100589.94
2018-11-05T07:29:39.924Z,100596.19
2018-11-05T07:32:08.682Z,100591.95
2018-11-05T07:34:37.391Z,100590.77
2018-11-05T07:37:06.096Z,100598.70
2018-11-05T07:39:34.836Z,100600.13
2018-11-05T07:42:03.555Z,100607.64
2018-11-05T07:44:32.264Z,100611.74
2018-11-05T07:47:01.007Z,100612.34
2018-11-05T07:49:29.783Z,100614.20
2018-11-05T07:51:58.484Z,100612.65
2018-11-05T07:54:27.191Z,100608.04
2018-11-05T07:56:56.058Z,100609.90
2018-11-05T07:59:24.744Z,100608.70
2018-11-05T08:01:53.483Z,100607.60
2018-11-05T08:04:22.213Z,100609.10
2018-11-05T08:06:51.209Z,100602.24
2018-11-05T08:09:19.925Z,100597.63
2018-11-05T08:11:48.636Z,100592.98
2018-11-05T08:14:17.350Z,100586.66
2018-11-05T08:16:46.058Z,100588.64
2018-11-05T08:19:14.772Z,100590.14
2018-11-05T08:21:43.484Z,100596.34
2018-11-05T08:24:12.342Z,100593.94
2018-11-05T08:26:41.040Z,100605.48
2018-11-05T08:29:09.788Z,100595.82
2018-11-05T08:31:38.496Z,100595.27
2018-11-05T08:34:07.372Z,100588.20
2018-11-05T08:36:36.950Z,100580.69
2018-11-05T08:39:08.893Z,100584.77
2018-11-05T08:41:37.592Z,100587.56
2018-11-05T08:44:07.509Z,100597.78
2018-11-05T08:46:36.471Z,100588.56
2018-11-05T08:49:05.608Z,100579.41
2018-11-05T08:51:34.641Z,100574.48
2018-11-05T08:54:03.289Z,100569.35
2018-11-05T08:56:31.994Z,100570.27
2018-11-05T08:59:00.696Z,100569.26
2018-11-05T09:01:33.101Z,100566.45
2018-11-05T09:04:02.268Z,100577.16
2018-11-05T09:06:30.971Z,100583.45
2018-11-05T09:08:59.691Z,100587.86
2018-11-05T09:11:29.030Z,100588.85
2018-11-05T09:13:57.542Z,100575.02
2018-11-05T09:16:26.549Z,100572.77
2018-11-05T09:18:55.355Z,100570.61
2018-11-05T09:21:24.071Z,100567.55
2018-11-05T09:23:52.832Z,100568.83
2018-11-05T09:26:21.560Z,100563.23
2018-11-05T09:28:50.294Z,100559.49
2018-11-05T09:31:19.015Z,100546.28
2018-11-05T09:33:47.732Z,100541.42
2018-11-05T09:36:16.740Z,100542.89
2018-11-05T09:38:45.444Z,100543.45
2018-11-05T09:41:14.149Z,100539.89
2018-11-05T09:43:43.114Z,100537.46
2018-11-05T09:46:11.858Z,100532.58
2018-11-05T09:48:41.048Z,100531.66
2018-11-05T09:51:10.142Z,100527.64
2018-11-05T09:53:38.856Z,100529.22
2018-11-05T09:56:07.604Z,100522.14
2018-11-05T09:58:36.333Z,100518.47
2018-11-05T10:01:06.071Z,100519.30
2018-11-05T10:03:40.050Z,100518.89
2018-11-05T10:06:08.549Z,100514.02
2018-11-05T10:08:37.279Z,100515.33
2018-11-05T10:11:06.159Z,100509.81
2018-11-05T10:13:35.027Z,100513.20
2018-11-05T10:16:03.733Z,100513.48
2018-11-05T10:18:32.449Z,100513.37
2018-11-05T10:21:01.224Z,100515.87
2018-11-05T10:23:29.945Z,100521.36
2018-11-05T10:25:58.661Z,100523.20
2018-11-05T10:28:34.209Z,100538.13
2018-11-05T10:31:02.934Z,100539.00
2018-11-05T10:33:31.713Z,100541.15
2018-11-05T10:36:00.386Z,100552.51
2018-11-05T10:38:29.141Z,100553.35
2018-11-05T10:40:57.814Z,100539.27
2018-11-05T10:43:26.505Z,100539.63
2018-11-05T10:45:55.231Z,100542.39
2018-11-05T10:48:23.983Z,100535.69
2018-11-05T10:50:52.742Z,100529.16
2018-11-05T10:53:21.440Z,100528.20
2018-11-05T10:55:50.161Z,100519.80
2018-11-05T10:58:19.246Z,100512.86
2018-11-05T11:00:53.151Z,100508.76
2018-11-05T11:03:21.867Z,100499.28
2018-11-05T11:05:50.613Z,100488.37
2018-11-05T11:08:19.331Z,100495.20
2018-11-05T11:10:48.047Z,100510.30
2018-11-05T11:13:16.764Z,100507.92
2018-11-05T11:15:45.497Z,100499.52
2018-11-05T11:18:14.432Z,100499.31
2018-11-05T11:20:43.178Z,100504.80
2018-11-05T11:23:11.901Z,100501.97
2018-11-05T11:25:40.684Z,100509.22
2018-11-05T11:28:09.449Z,100507.92
2018-11-05T11:30:38.129Z,100495.70
2018-11-05T11:33:06.861Z,100481.03
2018-11-05T11:35:35.567Z,100493.75
2018-11-05T11:38:05.692Z,100489.62
2018-11-05T11:40:34.407Z,100485.02
2018-11-05T11:43:03.144Z,100489.78
2018-11-05T11:45:31.945Z,100493.47
2018-11-05T11:48:00.647Z,100506.91
2018-11-05T11:50:29.413Z,100502.03
2018-11-05T11:52:58.253Z,100494.63
2018-11-05T11:55:26.883Z,100494.16
2018-11-05T11:57:55.631Z,100486.70
2018-11-05T12:00:25.473Z,100488.83
2018-11-05T12:02:54.382Z,100470.80
2018-11-05T12:05:23.324Z,100468.72
2018-11-05T12:07:51.851Z,100463.27
2018-11-05T12:10:22.304Z,100452.92
2018-11-05T12:12:51.010Z,100452.47
2018-11-05T12:15:20.678Z,100456.15
2018-11-05T12:17:50.489Z,100449.36
2018-11-05T12:20:20.565Z,100440.94
2018-11-05T12:22:49.732Z,100440.36
2018-11-05T12:25:18.451Z,100437.52
2018-11-05T12:27:47.413Z,100427.09
2018-11-05T12:30:19.119Z,100417.63
2018-11-05T12:32:49.042Z,100417.27
2018-11-05T12:35:17.737Z,100411.83
2018-11-05T12:37:47.463Z,100413.48
2018-11-05T12:40:17.300Z,100410.88
2018-11-05T12:42:47.193Z,100412.31
2018-11-05T12:45:15.912Z,100405.06
2018-11-05T12:47:44.672Z,100394.52
2018-11-05T12:50:15.813Z,100397.60
2018-11-05T12:52:45.447Z,100403.75
2018-11-05T12:55:14.180Z,100399.94
2018-11-05T12:57:42.955Z,100391.95
2018-11-05T13:00:15.853Z,100393.03
2018-11-05T13:02:44.608Z,100385.91
2018-11-05T13:05:14.009Z,100388.31
2018-11-05T13:07:42.730Z,100394.41
2018-11-05T13:10:12.500Z,100392.77
2018-11-05T13:12:41.238Z,100402.14
2018-11-05T13:15:10.728Z,100403.10
2018-11-05T13:17:40.065Z,100404.99
2018-11-05T13:20:17.643Z,100406.89
2018-11-05T13:22:46.591Z,100404.99
2018-11-05T13:25:15.343Z,100400.02
2018-11-05T13:27:45.214Z,100392.31
2018-11-05T13:30:14.395Z,100389.13
2018-11-05T13:32:43.551Z,100386.01
2018-11-05T13:35:19.786Z,100387.55
2018-11-05T13:37:48.927Z,100390.52
2018-11-05T13:40:18.505Z,100379.27
2018-11-05T13:42:47.618Z,100374.17
2018-11-05T13:45:16.707Z,100366.20
2018-11-05T13:47:45.985Z,100368.47
2018-11-05T13:50:14.733Z,100366.67
2018-11-05T13:52:43.640Z,100367.89
2018-11-05T13:55:13.413Z,100361.81
2018-11-05T13:57:43.436Z,100361.36
2018-11-05T14:00:15.673Z,100357.45
2018-11-05T14:02:44.397Z,100366.01
2018-11-05T14:05:13.365Z,100361.03
2018-11-05T14:07:42.093Z,100349.98
2018-11-05T14:10:13.980Z,100350.91
2018-11-05T14:12:43.693Z,100351.16
2018-11-05T14:15:12.321Z,100344.03
2018-11-05T14:17:41.729Z,100345.80
2018-11-05T14:20:11.494Z,100353.91
2018-11-05T14:22:40.848Z,100347.48
2018-11-05T14:25:12.051Z,100349.73
2018-11-05T14:27:41.568Z,100337.88
2018-11-05T14:30:11.644Z,100344.50
2018-11-05T14:32:41.084Z,100352.59
2018-11-05T14:35:09.822Z,100350.36
2018-11-05T14:40:14.965Z,100345.47
2018-11-05T14:42:43.741Z,100332.27
2018-11-05T14:45:13.839Z,100330.16
2018-11-05T14:47:43.499Z,100323.83
2018-11-05T14:50:13.680Z,100317.54
2018-11-05T14:52:42.379Z,100313.96
2018-11-05T14:55:13.216Z,100305.77
2018-11-05T14:57:42.568Z,100302.81
2018-11-05T15:00:14.476Z,100301.84
2018-11-05T15:02:43.899Z,100297.70
2018-11-05T15:05:13.341Z,100293.18
2018-11-05T15:07:42.877Z,100294.00
2018-11-05T15:10:16.874Z,100291.97
2018-11-05T15:12:45.715Z,100286.98
2018-11-05T15:15:14.968Z,100287.60
2018-11-05T15:17:44.248Z,100286.98
2018-11-05T15:20:14.301Z,100294.48
2018-11-05T15:22:42.794Z,100288.17
2018-11-05T15:25:11.913Z,100282.34
2018-11-05T15:27:40.918Z,100283.41
2018-11-05T15:30:10.964Z,100282.57
2018-11-05T15:32:40.396Z,100284.25
2018-11-05T15:35:09.233Z,100284.47
2018-11-05T15:37:38.754Z,100279.84
2018-11-05T15:40:08.188Z,100281.14
2018-11-05T15:42:36.962Z,100291.39
2018-11-05T15:45:07.257Z,100293.04
2018-11-05T15:47:35.996Z,100292.33
2018-11-05T15:50:06.719Z,100300.51
2018-11-05T15:52:37.107Z,100302.06
2018-11-05T15:55:05.521Z,100300.13
2018-11-05T15:57:34.500Z,100294.69
2018-11-05T16:00:03.310Z,100298.61
2018-11-05T16:02:32.289Z,100297.39
2018-11-05T16:05:14.972Z,100302.40
2018-11-05T16:07:43.729Z,100308.22
2018-11-05T16:10:27.448Z,100313.78
2018-11-05T16:12:56.156Z,100313.77
2018-11-05T16:15:44.119Z,100313.27
2018-11-05T16:18:12.881Z,100315.15
2018-11-05T16:20:41.594Z,100312.02
2018-11-05T16:23:10.324Z,100310.00
2018-11-05T16:25:39.103Z,100313.20
2018-11-05T16:28:07.771Z,100320.91
2018-11-05T16:33:47.997Z,100324.55
2018-11-05T16:39:27.286Z,100320.59
2018-11-05T16:44:52.409Z,100312.48
2018-11-05T16:47:43.000Z,100311.03
2018-11-05T16:50:28.796Z,100313.50
2018-11-05T16:53:11.347Z,100313.83
2018-11-05T16:55:40.089Z,100314.87
2018-11-05T16:58:09.084Z,100322.48
2018-11-05T17:00:38.028Z,100322.56
2018-11-05T17:03:07.027Z,100318.50
2018-11-05T17:05:35.704Z,100308.61
2018-11-05T17:08:05.629Z,100314.79
2018-11-05T17:10:34.543Z,100317.98
2018-11-05T17:13:05.233Z,100319.87
2018-11-05T17:15:34.054Z,100317.00
2018-11-05T17:18:03.023Z,100316.65
2018-11-05T17:20:38.579Z,100320.77
2018-11-05T17:23:07.301Z,100322.19
2018-11-05T17:25:36.023Z,100321.84
2018-11-05T17:28:05.235Z,100316.70
2018-11-05T17:30:34.132Z,100323.00
2018-11-05T17:33:03.134Z,100321.43
2018-11-05T17:35:32.125Z,100314.64
2018-11-05T17:38:00.857Z,100315.22
2018-11-05T17:40:29.592Z,100328.27
2018-11-05T17:42:58.328Z,100321.13
2018-11-05T17:45:27.066Z,100317.68
2018-11-05T17:47:55.781Z,100316.61
2018-11-05T17:50:24.549Z,100310.09
2018-11-05T17:52:53.263Z,100308.41
2018-11-05T17:55:28.167Z,100301.16
2018-11-05T17:57:57.045Z,100302.58
2018-11-05T18:00:25.772Z,100303.03
2018-11-05T18:02:54.737Z,100311.09
2018-11-05T18:05:23.724Z,100308.83
2018-11-05T18:07:52.458Z,100307.98
2018-11-05T18:10:21.425Z,100301.13
2018-11-05T18:12:50.999Z,100296.83
2018-11-05T18:15:19.758Z,100305.95
2018-11-05T18:17:48.488Z,100299.55
2018-11-05T18:20:17.868Z,100301.23
2018-11-05T18:22:46.588Z,100292.69
2018-11-05T18:25:16.556Z,100289.70
2018-11-05T18:27:45.397Z,100288.13
2018-11-05T18:30:14.609Z,100294.56
2018-11-05T18:32:43.572Z,100284.59
2018-11-05T18:35:13.364Z,100287.66
2018-11-05T18:37:44.324Z,100279.11
2018-11-05T18:40:14.301Z,100275.89
2018-11-05T18:42:43.916Z,100265.92
2018-11-05T18:45:12.918Z,100258.56
2018-11-05T18:47:41.989Z,100255.95
2018-11-05T18:50:12.439Z,100261.90
2018-11-05T18:52:41.213Z,100267.95
2018-11-05T18:55:11.186Z,100265.34
2018-11-05T18:57:40.122Z,100263.12
2018-11-05T19:00:16.933Z,100258.36
2018-11-05T19:02:46.336Z,100259.41
2018-11-05T19:05:15.096Z,100259.05
2018-11-05T19:07:43.837Z,100257.75
2018-11-05T19:10:13.040Z,100264.73
2018-11-05T19:12:41.863Z,100256.53
2018-11-05T19:15:11.873Z,100258.80
2018-11-05T19:17:40.792Z,100260.94
2018-11-05T19:20:09.631Z,100263.17
2018-11-05T19:22:39.212Z,100264.94
2018-11-05T19:25:09.201Z,100270.98
2018-11-05T19:27:38.509Z,100276.78
2018-11-05T19:30:11.391Z,100277.36
2018-11-05T19:32:40.645Z,100273.10
2018-11-05T19:35:10.344Z,100272.98
2018-11-05T19:37:40.396Z,100270.49
2018-11-05T19:40:10.732Z,100267.04
2018-11-05T19:42:40.540Z,100264.89
2018-11-05T19:45:11.628Z,100266.93
2018-11-05T19:47:40.620Z,100267.31
2018-11-05T19:50:11.769Z,100266.73
2018-11-05T19:52:41.817Z,100264.94
2018-11-05T19:55:11.811Z,100272.30
2018-11-05T19:57:41.692Z,100273.98
2018-11-05T20:00:16.637Z,100279.19
2018-11-05T20:02:45.878Z,100278.81
2018-11-05T20:05:15.222Z,100277.05
2018-11-05T20:07:44.600Z,100278.81
2018-11-05T20:10:15.272Z,100271.95
2018-11-05T20:12:45.035Z,100269.34
2018-11-05T20:15:13.808Z,100262.09
2018-11-05T20:17:43.647Z,100254.73
2018-11-05T20:20:13.684Z,100255.19
2018-11-05T20:22:42.500Z,100261.71
2018-11-05T20:25:11.834Z,100261.71
2018-11-05T20:27:41.207Z,100255.77
2018-11-05T20:30:16.347Z,100257.66
2018-11-05T20:32:46.935Z,100262.02
2018-11-05T20:35:15.344Z,100262.98
2018-11-05T20:37:44.060Z,100259.42
2018-11-05T20:40:15.066Z,100257.39
2018-11-05T20:42:45.046Z,100256.08
2018-11-05T20:45:14.169Z,100244.47
2018-11-05T20:47:43.170Z,100248.03
2018-11-05T20:50:13.009Z,100247.77
2018-11-05T20:52:41.777Z,100247.88
2018-11-05T20:55:11.819Z,100249.64
2018-11-05T20:57:41.043Z,100245.35
2018-11-05T21:00:11.289Z,100243.59
2018-11-05T21:02:41.147Z,100240.25
2018-11-05T21:05:09.869Z,100236.92
2018-11-05T21:07:39.091Z,100242.24
2018-11-05T21:10:09.240Z,100239.83
2018-11-05T21:12:38.464Z,100240.91
2018-11-05T21:15:08.057Z,100237.30
2018-11-05T21:17:36.792Z,100237.15
2018-11-05T21:20:05.569Z,100232.63
2018-11-05T21:22:34.341Z,100231.05
2018-11-05T21:25:03.312Z,100230.05
2018-11-05T21:27:32.034Z,100227.67
2018-11-05T21:30:00.781Z,100226.22
2018-11-05T21:32:29.519Z,100224.76
2018-11-05T21:34:58.745Z,100226.25
2018-11-05T21:37:27.659Z,100220.89
2018-11-05T21:39:56.387Z,100219.23
2018-11-05T21:42:25.329Z,100217.77
2018-11-05T21:44:54.034Z,100219.27
2018-11-05T21:47:22.770Z,100219.11
2018-11-05T21:49:51.462Z,100217.57
2018-11-05T21:52:20.168Z,100210.33
2018-11-05T21:54:49.368Z,100220.94
2018-11-05T21:57:18.157Z,100226.93
2018-11-05T21:59:46.859Z,100237.99
2018-11-05T22:02:15.593Z,100234.66
2018-11-05T22:04:44.345Z,100226.30
2018-11-05T22:07:13.051Z,100231.13
2018-11-05T22:09:41.788Z,100229.09
2018-11-05T22:12:10.493Z,100236.66
2018-11-05T22:14:39.469Z,100244.20
2018-11-05T22:17:08.205Z,100233.23
2018-11-05T22:19:36.900Z,100234.64
2018-11-05T22:22:05.624Z,100241.72
2018-11-05T22:24:34.349Z,100241.83
2018-11-05T22:27:03.445Z,100246.19
2018-11-05T22:29:32.144Z,100244.61
2018-11-05T22:32:00.869Z,100242.12
2018-11-05T22:34:29.884Z,100242.41
2018-11-05T22:36:58.611Z,100247.09
2018-11-05T22:39:27.298Z,100245.79
2018-11-05T22:41:56.012Z,100246.71
2018-11-05T22:44:24.933Z,100248.39
2018-11-05T22:46:53.674Z,100242.81
2018-11-05T22:49:22.423Z,100239.85
2018-11-05T22:51:51.116Z,100236.86
2018-11-05T22:54:19.831Z,100237.81
2018-11-05T22:56:48.523Z,100240.42
2018-11-05T23:02:28.288Z,100217.92
2018-11-05T23:04:57.021Z,100219.33
2018-11-05T23:07:25.930Z,100218.97
2018-11-05T23:09:54.656Z,100226.78
2018-11-05T23:12:23.608Z,100222.60
2018-11-05T23:14:59.007Z,100224.08
2018-11-05T23:17:27.724Z,100227.98
2018-11-05T23:19:56.435Z,100223.52
2018-11-05T23:22:25.127Z,100230.59
2018-11-05T23:24:53.852Z,100232.84
2018-11-05T23:27:22.584Z,100233.75
2018-11-05T23:29:51.307Z,100238.60
2018-11-05T23:32:20.308Z,100235.72
2018-11-05T23:34:49.020Z,100239.34
2018-11-05T23:37:17.724Z,100240.41
2018-11-05T23:39:46.699Z,100240.86
2018-11-05T23:42:15.416Z,100239.17
2018-11-05T23:44:44.145Z,100238.36
2018-11-05T23:47:12.856Z,100234.53
2018-11-05T23:49:41.562Z,100235.09
2018-11-05T23:52:10.384Z,100238.27
2018-11-05T23:54:39.026Z,100232.25
2018-11-05T23:57:07.731Z,100234.02
2018-11-05T23:59:36.448Z,100232.99
